Time;durP1;ratioP1;P1;durP2;ratioP2;P2;SDS_P1;SDS_P2;PMS_P1;PMS_P2;Temp;Humidity;BMP_temperature;BMP_pressure;BME280_temperature;BME280_humidity;BME280_pressure;Samples;Min_cycle;Max_cycle;Signal;HPM_P1;HPM_P2
2022/08/31 00:05:57;;;;;;;8.55;3.67;;;18.30;99.90;;;;;;5064969;28;20039;-74
2022/08/31 00:08:24;;;;;;;5.35;3.22;;;18.50;99.90;;;;;;5069077;28;20617;-74
2022/08/31 00:10:50;;;;;;;8.88;4.70;;;18.40;99.90;;;;;;5061862;28;20044;-74
2022/08/31 00:13:16;;;;;;;9.55;3.35;;;18.60;99.90;;;;;;5070017;28;20040;-75
2022/08/31 00:15:42;;;;;;;5.68;2.78;;;18.50;99.90;;;;;;5072971;28;20033;-74
2022/08/31 00:18:09;;;;;;;6.80;2.90;;;18.40;99.90;;;;;;5061116;28;20075;-74
2022/08/31 00:20:35;;;;;;;6.35;2.85;;;18.20;99.90;;;;;;5072350;28;20037;-74
2022/08/31 00:23:03;;;;;;;4.85;2.70;;;18.30;99.90;;;;;;5068481;28;20036;-74
2022/08/31 00:25:29;;;;;;;9.75;3.03;;;18.40;99.90;;;;;;5073014;28;20033;-74
2022/08/31 00:27:55;;;;;;;5.88;2.30;;;18.30;99.90;;;;;;5068239;28;20031;-74
2022/08/31 00:30:21;;;;;;;4.13;2.33;;;18.50;99.90;;;;;;5059004;28;20120;-74
2022/08/31 00:32:46;;;;;;;8.73;3.83;;;18.60;99.90;;;;;;5062866;28;20033;-74
2022/08/31 00:35:12;;;;;;;6.22;3.92;;;18.70;99.90;;;;;;5071880;28;20036;-74
2022/08/31 00:37:38;;;;;;;5.45;3.83;;;18.50;99.90;;;;;;5069805;28;20029;-74
2022/08/31 00:40:04;;;;;;;4.82;3.30;;;18.50;99.90;;;;;;5069773;28;20063;-74
2022/08/31 00:42:30;;;;;;;5.38;2.88;;;18.50;99.90;;;;;;5063963;28;20068;-74
2022/08/31 00:44:56;;;;;;;6.25;3.22;;;18.40;99.90;;;;;;5061099;28;20068;-74
2022/08/31 00:47:21;;;;;;;4.45;2.70;;;18.30;99.90;;;;;;5055995;28;20031;-74
2022/08/31 00:49:50;;;;;;;12.93;3.28;;;18.30;99.90;;;;;;5065372;28;20020;-74
2022/08/31 00:52:24;;;;;;;5.05;2.78;;;18.40;99.90;;;;;;5066175;28;20486;-74
2022/08/31 00:55:00;;;;;;;5.57;2.55;;;18.40;99.90;;;;;;5071708;28;20056;-74
2022/08/31 00:57:32;;;;;;;5.65;2.80;;;18.40;99.90;;;;;;5070499;28;20445;-74
2022/08/31 01:00:00;;;;;;;3.80;2.17;;;18.40;99.90;;;;;;5053533;28;20509;-74
2022/08/31 01:02:26;;;;;;;4.53;2.75;;;18.40;99.90;;;;;;5063032;28;20067;-74
2022/08/31 01:04:51;;;;;;;4.68;2.85;;;18.50;99.90;;;;;;5072682;28;20056;-74
2022/08/31 01:07:17;;;;;;;3.92;2.38;;;18.70;99.90;;;;;;5069140;28;20055;-74
2022/08/31 01:09:44;;;;;;;4.00;2.90;;;18.70;99.90;;;;;;5066539;28;20036;-74
2022/08/31 01:12:11;;;;;;;4.72;2.78;;;18.70;99.90;;;;;;5057981;28;20052;-75
2022/08/31 01:14:38;;;;;;;4.78;2.92;;;18.50;99.90;;;;;;5054419;28;20086;-74
2022/08/31 01:17:05;;;;;;;5.95;2.85;;;18.70;99.90;;;;;;5069384;28;20111;-74
2022/08/31 01:19:33;;;;;;;5.07;2.40;;;18.80;99.90;;;;;;5068106;28;20068;-74
2022/08/31 01:22:17;;;;;;;5.07;3.00;;;18.90;99.90;;;;;;5072175;28;20067;-74
2022/08/31 01:24:46;;;;;;;4.15;2.45;;;18.90;99.90;;;;;;5064193;28;20368;-74
2022/08/31 01:27:15;;;;;;;5.65;2.45;;;18.50;99.90;;;;;;5053349;28;20033;-74
2022/08/31 01:29:40;;;;;;;4.28;2.67;;;18.40;99.90;;;;;;5058468;28;20033;-74
2022/08/31 01:32:06;;;;;;;4.43;2.60;;;18.50;99.90;;;;;;5058331;28;20492;-74
2022/08/31 01:34:33;;;;;;;5.07;2.60;;;18.30;99.90;;;;;;5059231;28;20033;-74
2022/08/31 01:36:59;;;;;;;5.43;2.67;;;18.20;99.90;;;;;;5065070;28;20544;-74
2022/08/31 01:39:25;;;;;;;4.47;2.45;;;18.40;99.90;;;;;;5064902;28;20123;-74
2022/08/31 01:41:52;;;;;;;3.40;2.15;;;18.50;99.90;;;;;;5071268;28;20112;-74
2022/08/31 01:44:20;;;;;;;5.45;2.50;;;18.60;99.90;;;;;;5054094;28;20032;-74
2022/08/31 01:46:46;;;;;;;6.90;2.78;;;18.60;99.90;;;;;;5071116;28;20035;-74
2022/08/31 01:49:14;;;;;;;5.38;2.78;;;18.50;99.90;;;;;;5063420;28;20029;-74
2022/08/31 01:51:40;;;;;;;4.32;2.53;;;18.50;99.90;;;;;;5069107;28;20488;-74
2022/08/31 01:54:06;;;;;;;4.45;2.75;;;18.70;99.90;;;;;;5069452;28;20032;-74
2022/08/31 01:56:39;;;;;;;6.65;2.00;;;18.60;99.90;;;;;;5067287;28;20596;-74
2022/08/31 01:59:07;;;;;;;5.07;2.40;;;18.50;99.90;;;;;;5042716;28;20025;-74
2022/08/31 02:01:36;;;;;;;3.83;2.63;;;18.30;99.90;;;;;;5035705;28;20033;-74
2022/08/31 02:04:03;;;;;;;4.55;2.67;;;18.40;99.90;;;;;;5034064;28;20137;-74
2022/08/31 02:06:29;;;;;;;5.72;2.53;;;18.50;99.90;;;;;;5050759;28;20021;-74
2022/08/31 02:08:55;;;;;;;4.75;2.58;;;18.20;99.90;;;;;;5040981;28;20025;-74
2022/08/31 02:11:21;;;;;;;4.03;2.47;;;18.30;99.90;;;;;;5048866;28;20024;-74
2022/08/31 02:13:46;;;;;;;6.03;2.53;;;18.30;99.90;;;;;;5038177;28;20551;-74
2022/08/31 02:16:12;;;;;;;4.65;2.67;;;18.20;99.90;;;;;;5032168;28;20506;-74
2022/08/31 02:18:38;;;;;;;4.18;2.80;;;18.20;99.90;;;;;;5041911;28;20411;-74
2022/08/31 02:21:03;;;;;;;4.95;2.28;;;18.20;99.90;;;;;;5050575;28;20036;-74
2022/08/31 02:23:29;;;;;;;4.65;2.30;;;18.20;99.90;;;;;;5047436;28;20054;-75
2022/08/31 02:25:55;;;;;;;3.85;2.28;;;18.20;99.90;;;;;;5049446;28;20029;-75
2022/08/31 02:28:22;;;;;;;4.18;2.47;;;18.30;99.90;;;;;;5039551;28;20029;-74
2022/08/31 02:30:48;;;;;;;4.18;2.13;;;18.20;99.90;;;;;;5035261;28;20109;-74
2022/08/31 02:33:14;;;;;;;5.57;2.60;;;18.30;99.90;;;;;;5036221;28;20112;-74
2022/08/31 02:35:40;;;;;;;5.95;2.78;;;18.20;99.90;;;;;;5046837;28;20029;-74
2022/08/31 02:38:07;;;;;;;6.55;2.95;;;18.20;99.90;;;;;;5040762;28;20029;-74
2022/08/31 02:40:37;;;;;;;4.15;2.25;;;18.30;99.90;;;;;;5037834;28;20033;-74
2022/08/31 02:43:08;;;;;;;5.78;2.40;;;18.40;99.90;;;;;;5041447;28;20039;-74
2022/08/31 02:45:34;;;;;;;5.28;2.22;;;18.30;99.90;;;;;;5038933;28;20044;-74
2022/08/31 02:48:00;;;;;;;5.00;2.67;;;18.30;99.90;;;;;;5052460;28;20052;-74
2022/08/31 02:50:26;;;;;;;4.63;2.20;;;18.40;99.90;;;;;;5046103;28;20068;-74
2022/08/31 02:52:54;;;;;;;6.35;2.20;;;18.40;99.90;;;;;;5048459;28;20052;-74
2022/08/31 02:55:20;;;;;;;4.53;2.28;;;18.50;99.90;;;;;;5036144;28;20028;-74
2022/08/31 02:57:46;;;;;;;4.53;2.50;;;18.50;99.90;;;;;;5045519;28;20564;-74
2022/08/31 03:00:13;;;;;;;6.35;2.92;;;18.50;99.90;;;;;;5059394;28;20037;-73
2022/08/31 03:02:40;;;;;;;7.05;2.55;;;18.60;99.90;;;;;;5067727;28;20040;-73
2022/08/31 03:05:07;;;;;;;5.72;2.50;;;18.70;99.90;;;;;;5054935;28;20107;-73
2022/08/31 03:07:33;;;;;;;4.90;2.78;;;18.60;99.90;;;;;;5064282;28;20032;-73
2022/08/31 03:10:01;;;;;;;3.95;2.03;;;18.30;99.90;;;;;;5062753;28;20489;-73
2022/08/31 03:12:27;;;;;;;4.10;2.50;;;18.00;99.90;;;;;;5064698;28;20029;-73
2022/08/31 03:14:52;;;;;;;5.93;2.33;;;18.00;99.90;;;;;;5061295;28;20375;-73
2022/08/31 03:17:18;;;;;;;4.88;2.30;;;18.20;99.90;;;;;;5058318;28;20032;-73
2022/08/31 03:19:44;;;;;;;7.22;2.75;;;18.40;99.90;;;;;;5049707;28;20478;-74
2022/08/31 03:22:11;;;;;;;5.32;2.65;;;18.30;99.90;;;;;;5044637;28;20033;-73
2022/08/31 03:24:36;;;;;;;4.88;2.67;;;18.20;99.90;;;;;;5057471;28;20039;-73
2022/08/31 03:27:02;;;;;;;4.95;2.55;;;18.20;99.90;;;;;;5055804;28;21761;-73
2022/08/31 03:29:28;;;;;;;5.25;2.88;;;18.00;99.90;;;;;;5053538;28;20033;-73
2022/08/31 03:31:53;;;;;;;7.35;2.78;;;18.00;99.90;;;;;;5062527;28;20029;-73
2022/08/31 03:34:19;;;;;;;4.13;2.53;;;18.10;99.90;;;;;;5049297;28;20045;-73
2022/08/31 03:36:45;;;;;;;5.47;2.95;;;18.10;99.90;;;;;;5058779;28;20036;-73
2022/08/31 03:39:10;;;;;;;3.80;2.45;;;18.10;99.90;;;;;;5059635;28;20043;-73
2022/08/31 03:41:36;;;;;;;4.47;2.80;;;18.10;99.90;;;;;;5059539;28;20028;-73
2022/08/31 03:44:03;;;;;;;12.90;2.90;;;18.10;99.90;;;;;;5065941;28;20029;-73
2022/08/31 03:46:31;;;;;;;5.20;2.83;;;18.20;99.90;;;;;;5060108;28;20116;-73
2022/08/31 03:49:01;;;;;;;5.10;2.75;;;18.20;99.90;;;;;;5060369;28;20086;-73
2022/08/31 03:51:27;;;;;;;4.25;2.40;;;18.30;99.90;;;;;;5059378;28;20088;-73
2022/08/31 03:53:53;;;;;;;7.43;2.50;;;18.40;99.90;;;;;;5055899;28;20028;-73
2022/08/31 03:56:20;;;;;;;3.75;2.30;;;18.40;99.90;;;;;;5069918;28;20043;-73
2022/08/31 03:58:46;;;;;;;5.43;2.28;;;18.50;99.90;;;;;;5040201;28;20175;-73
2022/08/31 04:01:12;;;;;;;5.30;2.40;;;18.50;99.90;;;;;;5062258;28;20142;-73
2022/08/31 04:03:38;;;;;;;6.07;2.83;;;18.50;99.90;;;;;;5064365;28;20035;-73
2022/08/31 04:06:12;;;;;;;4.72;2.55;;;18.40;99.90;;;;;;5064539;28;20044;-73
2022/08/31 04:08:39;;;;;;;5.43;2.20;;;18.50;99.90;;;;;;5058759;28;20091;-73
2022/08/31 04:11:11;;;;;;;4.18;2.10;;;18.60;99.90;;;;;;5052446;28;20028;-73
2022/08/31 04:13:38;;;;;;;5.35;2.47;;;18.60;99.90;;;;;;5050419;28;21241;-73
2022/08/31 04:16:07;;;;;;;4.75;2.65;;;18.60;99.90;;;;;;5060820;28;20057;-73
2022/08/31 04:18:35;;;;;;;4.57;2.70;;;18.50;99.90;;;;;;5057681;28;20119;-73
2022/08/31 04:21:00;;;;;;;5.07;2.53;;;18.60;99.90;;;;;;5056642;28;20550;-74
2022/08/31 04:23:28;;;;;;;5.18;3.15;;;18.60;99.90;;;;;;5052186;28;20033;-73
2022/08/31 04:25:55;;;;;;;5.00;2.95;;;18.60;99.90;;;;;;5060639;28;20036;-73
2022/08/31 04:28:20;;;;;;;6.47;2.97;;;18.70;99.90;;;;;;5064147;28;20021;-73
2022/08/31 04:30:47;;;;;;;5.07;2.40;;;18.60;99.90;;;;;;5052342;28;20082;-73
2022/08/31 04:33:14;;;;;;;4.00;2.47;;;18.50;99.90;;;;;;5062467;28;20036;-72
2022/08/31 04:35:40;;;;;;;5.88;2.80;;;18.30;99.90;;;;;;5065642;28;20032;-73
2022/08/31 04:38:07;;;;;;;9.27;2.75;;;18.30;99.90;;;;;;5065754;28;20027;-73
2022/08/31 04:40:35;;;;;;;5.55;3.42;;;18.40;99.90;;;;;;5060950;28;20124;-73
2022/08/31 04:43:01;;;;;;;5.68;3.20;;;18.40;99.90;;;;;;5064354;28;20035;-73
2022/08/31 04:45:28;;;;;;;8.00;4.20;;;18.30;99.90;;;;;;5056174;28;20128;-73
2022/08/31 04:47:53;;;;;;;6.28;3.78;;;18.40;99.90;;;;;;5049766;28;20029;-73
2022/08/31 04:50:19;;;;;;;5.00;3.67;;;18.50;99.90;;;;;;5063444;28;20024;-73
2022/08/31 04:52:49;;;;;;;8.88;3.78;;;18.50;99.90;;;;;;5065311;28;20112;-73
2022/08/31 04:55:16;;;;;;;5.35;3.25;;;18.50;99.90;;;;;;5063770;28;21340;-73
2022/08/31 04:57:41;;;;;;;6.50;4.07;;;18.70;99.90;;;;;;5063690;28;20548;-73
2022/08/31 05:00:09;;;;;;;6.45;4.03;;;18.70;99.90;;;;;;5060917;28;20048;-73
2022/08/31 05:02:35;;;;;;;11.38;5.18;;;18.60;99.90;;;;;;5065259;28;20102;-73
2022/08/31 05:05:02;;;;;;;9.25;4.30;;;18.40;99.90;;;;;;5061656;28;20037;-73
2022/08/31 05:07:28;;;;;;;7.15;5.38;;;18.10;99.90;;;;;;5058715;28;20033;-73
2022/08/31 05:09:54;;;;;;;9.95;4.70;;;18.10;99.90;;;;;;5060690;28;20036;-73
2022/08/31 05:12:19;;;;;;;7.15;4.00;;;18.20;99.90;;;;;;5064231;28;20067;-73
2022/08/31 05:14:46;;;;;;;7.10;3.55;;;18.20;99.90;;;;;;5062201;28;20046;-73
2022/08/31 05:17:12;;;;;;;5.38;3.20;;;18.20;99.90;;;;;;5049365;28;20056;-73
2022/08/31 05:19:38;;;;;;;5.93;3.22;;;18.20;99.90;;;;;;5052479;28;20037;-73
2022/08/31 05:22:04;;;;;;;5.25;3.20;;;18.30;99.90;;;;;;5049460;28;21640;-73
2022/08/31 05:24:34;;;;;;;6.82;2.97;;;18.40;99.90;;;;;;5060695;28;20428;-73
2022/08/31 05:27:01;;;;;;;5.15;3.28;;;18.40;99.90;;;;;;5061704;28;20025;-73
2022/08/31 05:29:27;;;;;;;6.13;3.75;;;18.40;99.90;;;;;;5052623;28;20031;-73
2022/08/31 05:31:53;;;;;;;7.72;3.65;;;18.30;99.90;;;;;;5062229;28;20025;-73
2022/08/31 05:34:20;;;;;;;6.18;3.28;;;18.40;99.90;;;;;;5041213;28;20619;-73
2022/08/31 05:36:50;;;;;;;4.60;3.40;;;18.40;99.90;;;;;;5054260;28;20032;-73
2022/08/31 05:39:16;;;;;;;5.65;3.13;;;18.20;99.90;;;;;;5051268;28;20028;-73
2022/08/31 05:41:45;;;;;;;6.15;2.97;;;18.00;99.90;;;;;;5065345;28;20036;-73
2022/08/31 05:44:11;;;;;;;6.38;3.50;;;18.00;99.90;;;;;;5064229;28;20029;-73
2022/08/31 05:46:37;;;;;;;8.68;3.58;;;18.20;99.90;;;;;;5064160;28;20497;-73
2022/08/31 05:49:05;;;;;;;4.45;2.90;;;18.30;99.90;;;;;;5062572;28;20017;-73
2022/08/31 05:51:32;;;;;;;6.78;3.38;;;18.40;99.90;;;;;;5060126;28;20042;-73
2022/08/31 05:53:59;;;;;;;6.85;3.42;;;18.40;99.90;;;;;;5064290;28;20033;-73
2022/08/31 05:56:25;;;;;;;5.63;3.55;;;18.50;99.90;;;;;;5065725;28;20033;-73
2022/08/31 05:58:52;;;;;;;5.57;3.33;;;18.40;99.90;;;;;;5063573;28;20115;-73
2022/08/31 06:01:19;;;;;;;8.55;3.08;;;18.40;99.90;;;;;;5064764;28;20111;-73
2022/08/31 06:03:46;;;;;;;4.88;3.53;;;18.40;99.90;;;;;;5052466;28;20099;-73
2022/08/31 06:06:12;;;;;;;5.03;2.90;;;18.30;99.90;;;;;;5049393;28;20036;-73
2022/08/31 06:08:39;;;;;;;4.53;2.95;;;18.30;99.90;;;;;;5062810;28;20027;-71
2022/08/31 06:11:07;;;;;;;5.90;3.10;;;18.30;99.90;;;;;;5068454;28;20040;-73
2022/08/31 06:13:32;;;;;;;6.38;3.00;;;18.50;99.90;;;;;;5059098;28;20021;-74
2022/08/31 06:16:02;;;;;;;6.43;3.90;;;18.80;99.90;;;;;;5055335;28;20036;-73
2022/08/31 06:18:28;;;;;;;4.75;2.97;;;18.90;99.90;;;;;;5058989;28;21032;-74
2022/08/31 06:21:08;;;;;;;5.20;3.08;;;19.00;99.90;;;;;;5058985;28;20037;-74
2022/08/31 06:23:37;;;;;;;5.20;3.03;;;19.00;99.90;;;;;;5051458;28;20035;-74
2022/08/31 06:26:11;;;;;;;5.55;3.28;;;19.10;99.90;;;;;;5054343;28;20430;-73
2022/08/31 06:28:50;;;;;;;8.02;3.00;;;19.10;99.90;;;;;;5057848;28;20041;-74
2022/08/31 06:31:29;;;;;;;8.05;3.00;;;19.20;99.90;;;;;;5032108;28;20029;-73
2022/08/31 06:33:56;;;;;;;5.22;3.15;;;19.20;99.90;;;;;;5046427;28;20040;-74
2022/08/31 06:36:24;;;;;;;7.97;3.15;;;19.20;99.90;;;;;;5054952;28;20036;-74
2022/08/31 06:38:50;;;;;;;7.03;3.22;;;19.50;99.90;;;;;;5044862;28;20589;-74
2022/08/31 06:41:22;;;;;;;5.80;3.42;;;19.70;99.90;;;;;;5054719;28;20115;-75
2022/08/31 06:43:48;;;;;;;5.60;3.20;;;19.80;99.90;;;;;;5054788;28;20033;-75
2022/08/31 06:46:17;;;;;;;5.57;3.13;;;19.80;99.90;;;;;;5060677;28;20123;-75
2022/08/31 06:48:43;;;;;;;5.75;3.10;;;19.70;99.90;;;;;;5063518;28;20039;-77
2022/08/31 06:51:10;;;;;;;5.50;2.97;;;19.80;99.90;;;;;;5063173;28;20032;-76
2022/08/31 06:53:39;;;;;;;5.45;2.55;;;19.90;99.90;;;;;;5061300;28;20037;-76
2022/08/31 06:56:25;;;;;;;4.70;2.80;;;20.00;99.90;;;;;;5061240;28;20043;-76
2022/08/31 06:58:52;;;;;;;6.18;2.85;;;20.00;99.90;;;;;;5057280;28;20114;-76
2022/08/31 07:01:21;;;;;;;5.40;2.70;;;19.90;99.90;;;;;;5059928;28;20036;-76
2022/08/31 07:03:48;;;;;;;4.97;3.08;;;20.10;99.90;;;;;;5053829;28;20517;-76
2022/08/31 07:06:20;;;;;;;7.28;3.22;;;20.10;99.90;;;;;;5062823;28;20117;-76
2022/08/31 07:08:50;;;;;;;4.97;3.40;;;20.20;99.90;;;;;;5054602;28;20043;-76
2022/08/31 07:11:26;;;;;;;5.82;2.65;;;20.30;99.90;;;;;;5058695;28;20112;-76
2022/08/31 07:13:53;;;;;;;5.45;3.08;;;20.50;99.90;;;;;;5045098;28;20352;-76
2022/08/31 07:16:21;;;;;;;5.70;2.92;;;20.40;99.90;;;;;;5046472;28;20032;-76
2022/08/31 07:18:48;;;;;;;5.03;3.30;;;21.20;99.90;;;;;;5045364;28;20021;-75
2022/08/31 07:21:26;;;;;;;9.63;4.78;;;21.70;99.90;;;;;;5047175;28;20036;-76
2022/08/31 07:23:53;;;;;;;5.47;3.10;;;21.80;99.90;;;;;;5046408;28;20150;-75
2022/08/31 07:26:28;;;;;;;5.38;3.22;;;21.60;99.90;;;;;;5063228;28;20036;-75
2022/08/31 07:28:57;;;;;;;11.10;3.38;;;21.70;99.90;;;;;;5063510;28;20394;-75
2022/08/31 07:31:27;;;;;;;5.70;3.25;;;21.20;99.90;;;;;;5044830;28;20046;-75
2022/08/31 07:33:55;;;;;;;5.70;3.00;;;20.90;99.90;;;;;;5043712;28;20021;-75
2022/08/31 07:36:22;;;;;;;7.20;3.28;;;20.80;99.90;;;;;;5054572;28;20037;-75
2022/08/31 07:44:24;;;;;;;5.40;3.47;;;20.40;99.90;;;;;;5058627;28;20039;-75
2022/08/31 07:46:54;;;;;;;5.07;3.47;;;20.30;99.90;;;;;;5062854;28;20025;-75
2022/08/31 07:49:20;;;;;;;5.63;3.45;;;20.20;99.90;;;;;;5065711;28;20442;-75
2022/08/31 07:51:51;;;;;;;7.13;4.13;;;20.30;99.90;;;;;;5065346;28;20111;-75
2022/08/31 07:54:20;;;;;;;7.53;3.40;;;20.30;99.90;;;;;;5056869;28;20056;-75
2022/08/31 07:57:02;;;;;;;8.82;3.60;;;20.30;99.90;;;;;;5062478;28;20040;-75
2022/08/31 07:59:31;;;;;;;5.00;3.30;;;20.50;99.90;;;;;;5064300;28;20033;-75
2022/08/31 08:02:02;;;;;;;4.88;3.30;;;20.50;99.90;;;;;;5066187;28;20037;-75
2022/08/31 08:04:28;;;;;;;6.38;3.17;;;20.50;99.90;;;;;;5065985;28;20036;-75
2022/08/31 08:06:57;;;;;;;7.00;2.92;;;20.60;99.90;;;;;;5062000;28;20079;-75
2022/08/31 08:09:24;;;;;;;5.65;3.47;;;20.40;99.90;;;;;;5047703;28;20033;-75
2022/08/31 08:11:54;;;;;;;6.47;3.30;;;20.40;99.90;;;;;;5064054;28;20118;-75
2022/08/31 08:14:21;;;;;;;5.13;3.20;;;20.40;99.90;;;;;;5064712;28;20029;-75
2022/08/31 08:16:47;;;;;;;5.97;2.78;;;20.50;99.90;;;;;;5064929;28;20105;-75
2022/08/31 08:19:13;;;;;;;5.53;3.13;;;20.40;99.90;;;;;;5066005;28;20058;-75
2022/08/31 08:21:39;;;;;;;5.72;2.42;;;20.50;99.90;;;;;;5065866;28;20774;-75
2022/08/31 08:24:05;;;;;;;4.97;2.70;;;20.60;99.90;;;;;;5059594;28;20029;-75
2022/08/31 08:26:30;;;;;;;5.63;3.22;;;20.60;99.90;;;;;;5066987;28;20037;-75
2022/08/31 08:28:56;;;;;;;4.75;2.53;;;20.60;99.90;;;;;;5068580;28;20033;-74
2022/08/31 08:31:22;;;;;;;4.43;2.63;;;20.70;99.90;;;;;;5070471;28;20031;-75
2022/08/31 08:33:49;;;;;;;4.78;2.97;;;20.80;99.90;;;;;;5069203;28;20077;-74
2022/08/31 08:36:18;;;;;;;4.43;2.55;;;20.80;99.90;;;;;;5069159;28;20036;-75
2022/08/31 08:38:46;;;;;;;4.00;2.53;;;20.80;99.90;;;;;;5068959;28;20601;-75
2022/08/31 08:41:21;;;;;;;6.05;2.97;;;20.90;99.90;;;;;;5064509;28;20033;-74
2022/08/31 08:43:55;;;;;;;6.97;2.85;;;21.10;99.90;;;;;;5058465;28;20029;-75
2022/08/31 08:46:33;;;;;;;3.58;2.20;;;21.10;99.90;;;;;;5069500;28;20495;-75
2022/08/31 08:49:12;;;;;;;3.88;2.10;;;21.60;99.90;;;;;;5069010;28;20036;-75
2022/08/31 08:51:38;;;;;;;6.05;2.60;;;24.60;99.90;;;;;;5062216;28;20033;-75
2022/08/31 08:54:11;;;;;;;5.00;2.30;;;26.60;99.90;;;;;;5064536;28;20466;-75
2022/08/31 08:56:45;;;;;;;5.35;2.85;;;27.20;99.20;;;;;;5069304;28;20055;-75
2022/08/31 08:59:12;;;;;;;3.70;2.13;;;27.80;98.50;;;;;;5068288;28;20072;-75
2022/08/31 09:01:38;;;;;;;3.72;1.90;;;27.70;97.00;;;;;;5069683;28;20488;-75
2022/08/31 09:04:32;;;;;;;4.85;2.47;;;27.50;97.50;;;;;;5066655;28;20036;-75
2022/08/31 09:07:21;;;;;;;3.63;2.30;;;28.40;97.20;;;;;;5056250;28;20025;-75
2022/08/31 09:09:59;;;;;;;3.55;2.03;;;28.90;96.90;;;;;;5054605;28;20035;-74
2022/08/31 09:12:56;;;;;;;4.05;2.30;;;28.00;95.90;;;;;;5072796;28;20048;-75
2022/08/31 09:15:37;;;;;;;5.53;2.25;;;27.60;95.80;;;;;;5078841;28;20039;-75
2022/08/31 09:18:29;;;;;;;3.08;1.70;;;27.90;96.60;;;;;;5070601;28;20035;-74
2022/08/31 09:21:02;;;;;;;5.25;2.28;;;28.20;95.30;;;;;;5054176;28;20615;-75
2022/08/31 09:23:31;;;;;;;5.15;2.10;;;28.30;96.60;;;;;;5067663;28;20033;-75
2022/08/31 09:25:57;;;;;;;4.72;2.05;;;27.90;96.00;;;;;;5067940;28;20059;-75
2022/08/31 09:28:46;;;;;;;5.95;2.00;;;26.90;96.90;;;;;;5068581;28;20035;-75
2022/08/31 09:31:33;;;;;;;3.00;1.63;;;26.50;98.00;;;;;;5067097;28;20028;-75
2022/08/31 09:34:01;;;;;;;4.90;2.40;;;24.80;98.70;;;;;;5068285;28;20059;-75
2022/08/31 09:36:39;;;;;;;4.47;1.98;;;24.00;99.90;;;;;;5068641;28;20118;-75
2022/08/31 09:39:28;;;;;;;5.85;2.17;;;23.50;99.90;;;;;;5065222;28;20028;-75
2022/08/31 09:41:59;;;;;;;3.33;2.05;;;23.40;99.90;;;;;;5062441;28;20425;-75
2022/08/31 09:44:34;;;;;;;4.65;2.30;;;23.60;99.90;;;;;;5055313;28;20578;-75
2022/08/31 09:47:05;;;;;;;5.32;2.30;;;23.90;99.90;;;;;;5056834;28;20051;-75
2022/08/31 09:49:32;;;;;;;5.90;2.50;;;23.70;99.90;;;;;;5053480;28;20028;-75
2022/08/31 09:55:11;;;;;;;3.47;2.28;;;23.60;99.90;;;;;;5067536;28;20119;-75
2022/08/31 09:55:13;;;;;;;3.40;2.13;;;23.40;99.90;;;;;;5064503;28;20028;-75
2022/08/31 09:58:03;;;;;;;4.20;2.47;;;23.00;99.90;;;;;;5062317;28;20037;-75
2022/08/31 10:00:38;;;;;;;4.10;1.70;;;23.50;99.90;;;;;;5045154;28;20147;-75
2022/08/31 10:03:27;;;;;;;3.22;1.92;;;23.50;99.90;;;;;;5061739;28;21055;-75
2022/08/31 10:05:54;;;;;;;3.20;1.77;;;23.80;99.90;;;;;;5050178;28;20090;-75
2022/08/31 10:08:56;;;;;;;4.97;1.92;;;24.20;99.90;;;;;;5056935;28;20046;-75
2022/08/31 10:11:25;;;;;;;3.53;2.05;;;24.40;99.90;;;;;;5065275;28;20025;-75
2022/08/31 10:14:25;;;;;;;4.25;2.20;;;24.30;99.90;;;;;;5062779;28;20040;-75
2022/08/31 10:17:01;;;;;;;4.93;2.20;;;24.20;99.20;;;;;;5029507;28;20041;-75
2022/08/31 10:19:45;;;;;;;3.72;1.90;;;24.30;99.90;;;;;;5067524;28;20581;-75
2022/08/31 10:22:27;;;;;;;3.78;1.85;;;24.20;99.00;;;;;;5065432;28;20052;-75
2022/08/31 10:25:13;;;;;;;3.70;2.00;;;24.50;99.10;;;;;;5048705;28;20028;-75
2022/08/31 10:27:56;;;;;;;4.68;2.08;;;24.70;99.60;;;;;;5061615;28;20498;-75
2022/08/31 10:30:41;;;;;;;3.70;2.20;;;24.50;98.90;;;;;;5064980;28;20029;-75
2022/08/31 10:33:16;;;;;;;6.80;2.13;;;24.70;99.90;;;;;;5059915;28;20028;-75
2022/08/31 10:35:56;;;;;;;3.20;2.00;;;24.40;98.80;;;;;;5066108;28;20718;-75
2022/08/31 10:38:38;;;;;;;4.53;2.00;;;24.40;98.90;;;;;;5067742;28;20990;-75
2022/08/31 10:41:15;;;;;;;3.10;1.92;;;24.70;99.90;;;;;;5053158;28;20045;-75
2022/08/31 10:44:00;;;;;;;3.65;2.58;;;25.10;99.60;;;;;;5066710;28;20068;-76
2022/08/31 10:46:29;;;;;;;4.13;2.63;;;25.30;98.90;;;;;;5063257;28;20082;-75
2022/08/31 10:48:57;;;;;;;4.35;2.20;;;25.50;98.60;;;;;;5066987;28;20049;-75
2022/08/31 10:51:37;;;;;;;3.55;1.98;;;25.60;98.20;;;;;;5065680;28;20056;-75
2022/08/31 10:54:23;;;;;;;3.20;1.80;;;25.40;98.00;;;;;;5066516;28;20028;-75
2022/08/31 10:56:57;;;;;;;5.75;2.13;;;25.50;98.40;;;;;;5050221;28;20902;-75
2022/08/31 10:59:47;;;;;;;5.40;2.63;;;25.20;99.20;;;;;;5048081;28;20174;-75
2022/08/31 11:03:21;;;;;;;3.78;2.47;;;25.90;99.10;;;;;;5056727;28;20028;-75
2022/08/31 11:05:58;;;;;;;3.50;2.15;;;25.90;98.20;;;;;;4988574;28;20035;-75
2022/08/31 11:08:33;;;;;;;3.90;2.03;;;25.80;97.80;;;;;;4989786;28;20473;-75
2022/08/31 11:11:01;;;;;;;3.67;1.88;;;25.50;97.50;;;;;;5025818;28;20525;-76
2022/08/31 11:13:59;;;;;;;3.60;2.05;;;25.70;97.90;;;;;;5069533;28;20028;-75
2022/08/31 11:16:35;;;;;;;6.60;2.72;;;26.10;97.60;;;;;;5047727;28;20379;-75
2022/08/31 11:19:12;;;;;;;3.00;1.60;;;26.00;97.50;;;;;;5058176;28;20085;-75
2022/08/31 11:21:53;;;;;;;3.65;2.20;;;26.10;97.40;;;;;;5066700;28;20051;-76
2022/08/31 11:24:40;;;;;;;4.60;1.92;;;26.20;98.10;;;;;;5066467;28;20090;-75
2022/08/31 11:27:19;;;;;;;3.75;2.20;;;26.20;98.10;;;;;;5066049;28;20051;-75
2022/08/31 11:30:22;;;;;;;3.42;1.95;;;26.30;97.50;;;;;;5065179;28;20027;-75
2022/08/31 11:32:56;;;;;;;5.13;1.67;;;26.30;97.70;;;;;;5062312;28;20055;-75
2022/08/31 11:36:08;;;;;;;5.53;2.15;;;26.50;97.60;;;;;;5046664;28;20589;-76
2022/08/31 11:39:00;;;;;;;4.30;2.15;;;26.60;98.10;;;;;;5062400;28;20040;-76
2022/08/31 11:41:48;;;;;;;3.70;1.98;;;26.40;97.80;;;;;;5064948;28;20040;-76
2022/08/31 11:44:28;;;;;;;4.25;2.10;;;26.00;96.80;;;;;;5061238;28;20032;-75
2022/08/31 11:47:29;;;;;;;3.33;2.10;;;26.10;97.30;;;;;;5063351;28;20147;-75
2022/08/31 11:50:07;;;;;;;5.03;2.17;;;26.30;97.50;;;;;;5066615;28;20032;-76
2022/08/31 11:52:37;;;;;;;4.18;2.25;;;26.40;96.50;;;;;;5067675;28;20482;-76
2022/08/31 11:55:06;;;;;;;3.90;1.92;;;26.50;97.30;;;;;;5066211;28;20052;-75
2022/08/31 11:58:08;;;;;;;2.70;1.42;;;26.40;97.30;;;;;;5066986;28;20052;-76
2022/08/31 12:00:57;;;;;;;2.70;1.58;;;26.60;96.40;;;;;;5048474;28;20044;-76
2022/08/31 12:03:43;;;;;;;2.90;1.65;;;26.60;96.40;;;;;;5058790;28;20090;-76
2022/08/31 12:06:35;;;;;;;3.00;1.80;;;26.80;95.20;;;;;;5063065;28;20040;-76
2022/08/31 12:09:13;;;;;;;2.45;1.30;;;26.80;95.60;;;;;;5055184;28;20068;-75
2022/08/31 12:11:39;;;;;;;2.58;1.38;;;27.00;95.50;;;;;;5069330;28;20163;-76
2022/08/31 12:14:32;;;;;;;1.85;1.02;;;27.20;95.20;;;;;;5067863;28;20104;-75
2022/08/31 12:17:33;;;;;;;3.97;1.98;;;27.00;94.60;;;;;;5064440;28;20039;-75
2022/08/31 12:20:12;;;;;;;2.85;1.70;;;26.70;95.20;;;;;;5070188;28;20041;-75
2022/08/31 12:26:21;;;;;;;1.65;0.93;;;26.10;95.40;;;;;;5067142;28;20102;-75
2022/08/31 12:29:14;;;;;;;2.10;1.20;;;25.80;95.40;;;;;;4989774;28;20066;-76
2022/08/31 12:31:42;;;;;;;2.90;1.65;;;26.00;94.70;;;;;;5062472;28;20103;-76
2022/08/31 12:34:16;;;;;;;3.00;1.75;;;26.70;95.90;;;;;;5068842;28;20056;-76
2022/08/31 12:36:43;;;;;;;5.00;1.60;;;27.00;95.40;;;;;;5069860;28;20078;-75
2022/08/31 12:39:18;;;;;;;2.72;1.63;;;26.60;95.70;;;;;;5068561;28;20033;-76
2022/08/31 12:41:50;;;;;;;2.75;1.63;;;26.60;96.70;;;;;;5070383;28;20045;-75
2022/08/31 12:44:24;;;;;;;2.70;1.58;;;26.50;96.90;;;;;;5069473;28;20452;-76
2022/08/31 12:47:04;;;;;;;3.22;1.60;;;26.30;96.00;;;;;;5070317;28;20076;-76
2022/08/31 12:49:45;;;;;;;3.90;1.50;;;26.30;95.90;;;;;;5068162;28;20507;-76
2022/08/31 12:52:34;;;;;;;1.75;1.20;;;26.60;95.90;;;;;;5070242;28;20705;-76
2022/08/31 12:55:11;;;;;;;2.92;1.70;;;26.60;95.20;;;;;;5053976;28;20033;-76
2022/08/31 12:58:04;;;;;;;4.20;1.77;;;26.80;95.80;;;;;;5050501;28;20041;-76
2022/08/31 13:00:42;;;;;;;8.73;2.38;;;27.30;97.00;;;;;;5063092;28;20037;-76
2022/08/31 13:03:19;;;;;;;4.53;2.40;;;27.10;99.10;;;;;;5068873;28;20070;-76
2022/08/31 13:06:01;;;;;;;3.00;1.67;;;26.60;99.90;;;;;;5066507;28;20367;-76
2022/08/31 13:08:27;;;;;;;4.65;1.60;;;25.80;99.90;;;;;;5068127;28;20044;-76
2022/08/31 13:10:53;;;;;;;2.75;1.30;;;25.00;99.60;;;;;;5062009;28;20028;-76
2022/08/31 13:13:28;;;;;;;3.75;1.77;;;24.90;99.90;;;;;;5065179;28;20434;-75
2022/08/31 13:16:03;;;;;;;2.70;1.48;;;24.60;99.90;;;;;;5064180;28;20020;-75
2022/08/31 13:18:29;;;;;;;3.30;1.45;;;24.20;99.90;;;;;;5068287;28;20111;-75
2022/08/31 13:21:04;;;;;;;2.45;1.23;;;23.90;99.90;;;;;;5066861;28;20103;-75
2022/08/31 13:23:39;;;;;;;2.50;1.48;;;23.60;99.90;;;;;;5068094;28;20036;-75